sensor_id;sensor_type;location;lat;lon;timestamp;temperature;humidity
20162;DHT22;51382;53.180;15.414;2022-08-21T00:14:58;18.70;99.90
20162;DHT22;51382;53.180;15.414;2022-08-21T00:30:05;18.70;99.90
20162;DHT22;51382;53.180;15.414;2022-08-21T00:45:18;18.70;99.90
20162;DHT22;51382;53.180;15.414;2022-08-21T01:00:31;18.70;99.90
20162;DHT22;51382;53.180;15.414;2022-08-21T01:15:48;18.60;99.90
20162;DHT22;51382;53.180;15.414;2022-08-21T01:31:01;18.60;99.90
20162;DHT22;51382;53.180;15.414;2022-08-21T01:46:13;18.50;99.90
20162;DHT22;51382;53.180;15.414;2022-08-21T02:01:25;18.40;99.90
20162;DHT22;51382;53.180;15.414;2022-08-21T02:16:36;18.30;99.90
20162;DHT22;51382;53.180;15.414;2022-08-21T02:31:42;18.00;99.90
20162;DHT22;51382;53.180;15.414;2022-08-21T02:46:48;18.00;99.90
20162;DHT22;51382;53.180;15.414;2022-08-21T03:01:59;17.80;99.90
20162;DHT22;51382;53.180;15.414;2022-08-21T03:17:10;17.60;99.90
20162;DHT22;51382;53.180;15.414;2022-08-21T03:32:21;17.50;99.90
20162;DHT22;51382;53.180;15.414;2022-08-21T03:47:32;17.40;99.90
20162;DHT22;51382;53.180;15.414;2022-08-21T04:02:43;17.30;99.90
20162;DHT22;51382;53.180;15.414;2022-08-21T04:17:55;17.10;99.90
20162;DHT22;51382;53.180;15.414;2022-08-21T04:33:07;16.80;99.90
20162;DHT22;51382;53.180;15.414;2022-08-21T04:48:18;16.70;99.90
20162;DHT22;51382;53.180;15.414;2022-08-21T05:03:32;16.60;99.90
20162;DHT22;51382;53.180;15.414;2022-08-21T05:18:44;16.60;99.90
20162;DHT22;51382;53.180;15.414;2022-08-21T05:33:56;16.60;99.90
20162;DHT22;51382;53.180;15.414;2022-08-21T05:49:07;16.60;99.90
20162;DHT22;51382;53.180;15.414;2022-08-21T06:04:18;16.80;99.90
20162;DHT22;51382;53.180;15.414;2022-08-21T06:19:29;16.90;99.90
20162;DHT22;51382;53.180;15.414;2022-08-21T06:34:37;17.40;99.90
20162;DHT22;51382;53.180;15.414;2022-08-21T06:49:49;17.60;99.90
20162;DHT22;51382;53.180;15.414;2022-08-21T07:05:00;18.00;99.90
20162;DHT22;51382;53.180;15.414;2022-08-21T07:20:11;18.10;99.90
20162;DHT22;51382;53.180;15.414;2022-08-21T07:35:22;18.30;99.90
20162;DHT22;51382;53.180;15.414;2022-08-21T07:50:35;18.60;99.90
20162;DHT22;51382;53.180;15.414;2022-08-21T08:05:47;18.40;99.90
20162;DHT22;51382;53.180;15.414;2022-08-21T08:20:58;18.60;99.90
20162;DHT22;51382;53.180;15.414;2022-08-21T08:36:13;18.80;99.90
20162;DHT22;51382;53.180;15.414;2022-08-21T08:51:21;19.10;99.90
20162;DHT22;51382;53.180;15.414;2022-08-21T09:06:40;19.30;99.90
20162;DHT22;51382;53.180;15.414;2022-08-21T09:22:03;19.20;99.90
20162;DHT22;51382;53.180;15.414;2022-08-21T09:37:28;19.30;99.90
20162;DHT22;51382;53.180;15.414;2022-08-21T09:52:41;19.20;99.90
20162;DHT22;51382;53.180;15.414;2022-08-21T10:07:54;19.50;99.90
20162;DHT22;51382;53.180;15.414;2022-08-21T10:23:09;19.60;99.90
20162;DHT22;51382;53.180;15.414;2022-08-21T10:38:49;19.80;99.90
20162;DHT22;51382;53.180;15.414;2022-08-21T10:54:09;19.80;99.90
20162;DHT22;51382;53.180;15.414;2022-08-21T11:09:25;19.70;99.90
20162;DHT22;51382;53.180;15.414;2022-08-21T11:24:38;19.40;99.90
20162;DHT22;51382;53.180;15.414;2022-08-21T11:39:55;19.70;99.90
20162;DHT22;51382;53.180;15.414;2022-08-21T11:55:16;18.80;99.90
20162;DHT22;51382;53.180;15.414;2022-08-21T12:10:33;18.90;99.90
20162;DHT22;51382;53.180;15.414;2022-08-21T12:25:43;18.00;99.90
20162;DHT22;51382;53.180;15.414;2022-08-21T12:40:57;18.10;99.90
20162;DHT22;51382;53.180;15.414;2022-08-21T12:56:08;17.80;99.90
20162;DHT22;51382;53.180;15.414;2022-08-21T13:11:17;18.10;99.90
20162;DHT22;51382;53.180;15.414;2022-08-21T13:26:33;18.30;99.90
20162;DHT22;51382;53.180;15.414;2022-08-21T13:41:53;19.10;99.90
20162;DHT22;51382;53.180;15.414;2022-08-21T13:57:14;19.90;99.90
20162;DHT22;51382;53.180;15.414;2022-08-21T14:12:26;20.40;99.90
20162;DHT22;51382;53.180;15.414;2022-08-21T14:27:40;20.40;99.90
20162;DHT22;51382;53.180;15.414;2022-08-21T14:42:58;20.60;99.90
20162;DHT22;51382;53.180;15.414;2022-08-21T14:58:05;20.60;99.90
20162;DHT22;51382;53.180;15.414;2022-08-21T15:13:16;20.70;99.90
20162;DHT22;51382;53.180;15.414;2022-08-21T15:28:27;20.80;99.90
20162;DHT22;51382;53.180;15.414;2022-08-21T15:43:40;20.40;99.90
20162;DHT22;51382;53.180;15.414;2022-08-21T15:58:57;21.10;99.90
20162;DHT22;51382;53.180;15.414;2022-08-21T16:14:11;21.20;99.90
20162;DHT22;51382;53.180;15.414;2022-08-21T16:29:18;20.90;99.90
20162;DHT22;51382;53.180;15.414;2022-08-21T16:44:30;20.50;99.90
20162;DHT22;51382;53.180;15.414;2022-08-21T16:59:42;20.50;99.90
20162;DHT22;51382;53.180;15.414;2022-08-21T17:14:48;20.00;99.90
20162;DHT22;51382;53.180;15.414;2022-08-21T17:29:59;19.80;99.90
20162;DHT22;51382;53.180;15.414;2022-08-21T17:45:12;19.60;99.90
20162;DHT22;51382;53.180;15.414;2022-08-21T18:00:28;19.20;99.90
20162;DHT22;51382;53.180;15.414;2022-08-21T18:15:40;18.70;99.90
20162;DHT22;51382;53.180;15.414;2022-08-21T18:30:54;18.40;99.90
20162;DHT22;51382;53.180;15.414;2022-08-21T18:46:00;18.00;99.90
20162;DHT22;51382;53.180;15.414;2022-08-21T19:01:07;17.70;99.90
20162;DHT22;51382;53.180;15.414;2022-08-21T19:16:19;17.20;99.90
20162;DHT22;51382;53.180;15.414;2022-08-21T19:31:32;16.40;99.90
20162;DHT22;51382;53.180;15.414;2022-08-21T19:46:51;15.60;99.90
20162;DHT22;51382;53.180;15.414;2022-08-21T20:02:00;15.60;99.90
20162;DHT22;51382;53.180;15.414;2022-08-21T20:17:13;15.20;99.90
20162;DHT22;51382;53.180;15.414;2022-08-21T20:32:20;15.00;99.90
20162;DHT22;51382;53.180;15.414;2022-08-21T20:47:32;14.80;99.90
20162;DHT22;51382;53.180;15.414;2022-08-21T21:02:44;14.50;99.90
20162;DHT22;51382;53.180;15.414;2022-08-21T21:18:00;14.30;99.90
20162;DHT22;51382;53.180;15.414;2022-08-21T21:33:16;14.10;99.90
20162;DHT22;51382;53.180;15.414;2022-08-21T21:48:27;13.70;99.90
20162;DHT22;51382;53.180;15.414;2022-08-21T22:03:43;13.70;99.90
20162;DHT22;51382;53.180;15.414;2022-08-21T22:19:02;13.70;99.90
20162;DHT22;51382;53.180;15.414;2022-08-21T22:34:21;13.50;99.90
20162;DHT22;51382;53.180;15.414;2022-08-21T22:49:35;13.50;99.90
20162;DHT22;51382;53.180;15.414;2022-08-21T23:04:50;13.20;99.90
20162;DHT22;51382;53.180;15.414;2022-08-21T23:20:06;13.10;99.90
20162;DHT22;51382;53.180;15.414;2022-08-21T23:35:26;12.70;99.90
20162;DHT22;51382;53.180;15.414;2022-08-21T23:50:59;12.70;99.90
